createdAt,value
2023-02-02T00:02:02.458Z,77295.63
2023-02-02T00:04:32.668Z,77284.06
2023-02-02T00:07:00.164Z,77276.34
2023-02-02T00:09:29.663Z,77282.13
2023-02-02T00:11:57.652Z,77280.19
2023-02-02T00:14:25.078Z,77284.06
2023-02-02T00:16:53.723Z,77285.97
2023-02-02T00:19:21.785Z,77272.50
2023-02-02T00:21:48.920Z,77264.78
2023-02-02T00:24:19.816Z,77255.16
2023-02-02T00:26:49.424Z,77268.63
2023-02-02T00:29:22.036Z,77276.34
2023-02-02T00:31:49.226Z,77280.19
2023-02-02T00:34:16.892Z,77280.19
2023-02-02T00:36:44.823Z,77289.84
2023-02-02T00:39:15.727Z,77287.91
2023-02-02T00:41:42.411Z,77291.75
2023-02-02T00:44:27.677Z,77285.97
2023-02-02T00:46:54.693Z,77276.34
2023-02-02T00:49:22.806Z,77276.34
2023-02-02T00:51:50.483Z,77285.97
2023-02-02T00:54:17.195Z,77299.47
2023-02-02T00:56:44.266Z,77282.13
2023-02-02T00:59:11.818Z,77280.19
2023-02-02T01:01:38.461Z,77274.41
2023-02-02T01:04:05.777Z,77266.72
2023-02-02T01:06:32.485Z,77278.28
2023-02-02T01:08:59.144Z,77291.75
2023-02-02T01:11:25.971Z,77295.63
2023-02-02T01:13:53.434Z,77307.19
2023-02-02T01:16:22.616Z,77307.19
2023-02-02T01:18:50.544Z,77293.69
2023-02-02T01:21:17.223Z,77295.63
2023-02-02T01:23:43.985Z,77295.63
2023-02-02T01:26:12.738Z,77287.91
2023-02-02T01:28:40.367Z,77297.53
2023-02-02T01:31:12.538Z,77301.41
2023-02-02T01:33:40.221Z,77303.34
2023-02-02T01:36:10.552Z,77307.19
2023-02-02T01:38:37.467Z,77311.03
2023-02-02T01:41:04.748Z,77295.63
2023-02-02T01:43:53.243Z,77280.19
2023-02-02T01:46:25.139Z,77287.91
2023-02-02T01:48:57.695Z,77280.19
2023-02-02T01:51:30.135Z,77280.19
2023-02-02T01:53:59.282Z,77287.91
2023-02-02T01:56:31.394Z,77293.69
2023-02-02T01:58:59.419Z,77297.53
2023-02-02T02:01:26.838Z,77295.63
2023-02-02T02:03:54.141Z,77291.75
2023-02-02T02:06:21.297Z,77287.91
2023-02-02T02:09:07.212Z,77276.34
2023-02-02T02:11:35.896Z,77287.91
2023-02-02T02:14:25.180Z,77299.47
2023-02-02T02:17:00.265Z,77311.03
2023-02-02T02:20:17.543Z,77322.59
2023-02-02T02:23:31.189Z,77338.03
2023-02-02T02:26:35.572Z,77349.59
2023-02-02T02:29:55.806Z,77355.38
2023-02-02T02:32:50.384Z,77357.28
2023-02-02T02:35:35.543Z,77365.00
2023-02-02T02:38:04.978Z,77368.88
2023-02-02T02:40:49.599Z,77368.88
2023-02-02T02:43:24.401Z,77363.09
2023-02-02T02:45:53.691Z,77363.09
2023-02-02T02:48:21.021Z,77361.16
2023-02-02T02:50:47.824Z,77365.00
2023-02-02T02:53:18.781Z,77368.88
2023-02-02T02:56:06.613Z,77359.22
2023-02-02T02:58:46.723Z,77353.44
2023-02-02T03:01:45.380Z,77357.28
2023-02-02T03:04:33.515Z,77359.22
2023-02-02T03:07:29.635Z,77363.09
2023-02-02T03:09:58.417Z,77363.09
2023-02-02T03:12:25.047Z,77363.09
2023-02-02T03:14:51.606Z,77374.66
2023-02-02T03:17:18.204Z,77395.84
2023-02-02T03:19:44.841Z,77403.56
2023-02-02T03:22:11.501Z,77397.78
2023-02-02T03:24:38.084Z,77399.69
2023-02-02T03:27:04.730Z,77388.13
2023-02-02T03:29:31.356Z,77388.13
2023-02-02T03:32:00.882Z,77384.28
2023-02-02T03:34:27.466Z,77382.34
2023-02-02T03:36:54.113Z,77384.28
2023-02-02T03:39:20.715Z,77388.13
2023-02-02T03:41:47.337Z,77380.44
2023-02-02T03:44:13.966Z,77378.50
2023-02-02T03:46:40.555Z,77368.88
2023-02-02T03:49:07.229Z,77370.78
2023-02-02T03:51:33.889Z,77384.28
2023-02-02T03:54:00.497Z,77384.28
2023-02-02T03:56:27.180Z,77386.22
2023-02-02T03:58:53.747Z,77384.28
2023-02-02T04:01:27.103Z,77382.34
2023-02-02T04:03:53.726Z,77380.44
2023-02-02T04:06:20.611Z,77365.00
2023-02-02T04:08:47.165Z,77366.94
2023-02-02T04:11:13.764Z,77370.78
2023-02-02T04:13:40.804Z,77366.94
2023-02-02T04:16:07.680Z,77353.44
2023-02-02T04:18:34.543Z,77345.72
2023-02-02T04:21:02.050Z,77345.72
2023-02-02T04:23:34.531Z,77334.16
2023-02-02T04:26:01.055Z,77334.16
2023-02-02T04:28:28.634Z,77338.03
2023-02-02T04:30:56.239Z,77357.28
2023-02-02T04:33:24.678Z,77357.28
2023-02-02T04:35:51.603Z,77353.44
2023-02-02T04:38:18.480Z,77341.88
2023-02-02T04:40:47.771Z,77341.88
2023-02-02T04:43:15.203Z,77351.50
2023-02-02T04:45:42.451Z,77343.81
2023-02-02T04:48:09.706Z,77345.72
2023-02-02T04:50:36.486Z,77345.72
2023-02-02T04:53:04.241Z,77345.72
2023-02-02T04:55:30.811Z,77359.22
2023-02-02T04:57:57.488Z,77361.16
2023-02-02T05:00:24.892Z,77365.00
2023-02-02T05:02:51.508Z,77365.00
2023-02-02T05:05:18.244Z,77372.72
2023-02-02T05:07:44.839Z,77365.00
2023-02-02T05:10:11.920Z,77365.00
2023-02-02T05:12:38.651Z,77363.09
2023-02-02T05:15:05.848Z,77372.72
2023-02-02T05:17:32.594Z,77384.28
2023-02-02T05:19:59.224Z,77392.00
2023-02-02T05:22:25.905Z,77403.56
2023-02-02T05:24:52.454Z,77418.97
2023-02-02T05:27:18.994Z,77411.25
2023-02-02T05:29:47.503Z,77395.84
2023-02-02T05:32:14.098Z,77382.34
2023-02-02T05:34:40.703Z,77345.72
2023-02-02T05:37:07.319Z,77334.16
2023-02-02T05:39:34.032Z,77318.75
2023-02-02T05:42:00.692Z,77311.03
2023-02-02T05:44:27.265Z,77307.19
2023-02-02T05:46:53.840Z,77307.19
2023-02-02T05:49:20.401Z,77311.03
2023-02-02T05:51:49.490Z,77311.03
2023-02-02T05:54:20.584Z,77301.41
2023-02-02T05:56:48.540Z,77295.63
2023-02-02T05:59:15.256Z,77297.53
2023-02-02T06:01:41.919Z,77295.63
2023-02-02T06:04:08.655Z,77287.91
2023-02-02T06:06:35.799Z,77299.47
2023-02-02T06:09:02.813Z,77299.47
2023-02-02T06:11:29.903Z,77291.75
2023-02-02T06:13:56.797Z,77305.25
2023-02-02T06:16:23.960Z,77295.63
2023-02-02T06:18:51.054Z,77299.47
2023-02-02T06:21:19.808Z,77293.69
2023-02-02T06:23:46.563Z,77295.63
2023-02-02T06:26:14.913Z,77305.25
2023-02-02T06:28:42.489Z,77287.91
2023-02-02T06:31:11.702Z,77297.53
2023-02-02T06:33:38.374Z,77291.75
2023-02-02T06:36:06.705Z,77291.75
2023-02-02T06:38:33.413Z,77287.91
2023-02-02T06:41:00.766Z,77276.34
2023-02-02T06:43:28.388Z,77272.50
2023-02-02T06:45:57.339Z,77268.63
2023-02-02T06:48:24.115Z,77280.19
2023-02-02T06:50:50.688Z,77278.28
2023-02-02T06:53:22.881Z,77276.34
2023-02-02T06:55:56.162Z,77274.41
2023-02-02T06:58:23.314Z,77276.34
2023-02-02T07:00:50.064Z,77272.50
2023-02-02T07:03:17.106Z,77274.41
2023-02-02T07:05:43.907Z,77276.34
2023-02-02T07:08:10.511Z,77280.19
2023-02-02T07:11:14.363Z,77270.56
2023-02-02T07:13:25.222Z,77257.06
2023-02-02T07:15:51.848Z,77257.06
2023-02-02T07:18:18.519Z,77251.28
2023-02-02T07:20:45.236Z,77257.06
2023-02-02T07:23:11.843Z,77245.50
2023-02-02T07:25:38.455Z,77241.66
2023-02-02T07:28:05.214Z,77251.28
2023-02-02T07:30:32.259Z,77245.50
2023-02-02T07:32:58.919Z,77241.66
2023-02-02T07:35:25.884Z,77228.16
2023-02-02T07:37:53.949Z,77237.78
2023-02-02T07:40:21.221Z,77237.78
2023-02-02T07:42:48.495Z,77247.44
2023-02-02T07:45:27.277Z,77245.50
2023-02-02T07:48:00.710Z,77249.38
2023-02-02T07:50:29.321Z,77249.38
2023-02-02T07:52:56.420Z,77249.38
2023-02-02T07:55:22.999Z,77243.56
2023-02-02T07:57:52.675Z,77237.78
2023-02-02T08:00:19.849Z,77233.94
2023-02-02T08:02:49.115Z,77230.09
2023-02-02T08:05:15.891Z,77230.09
2023-02-02T08:07:42.574Z,77212.75
2023-02-02T08:10:09.865Z,77210.81
2023-02-02T08:12:36.480Z,77203.09
2023-02-02T08:15:03.335Z,77203.09
2023-02-02T08:17:30.011Z,77195.41
2023-02-02T08:19:56.636Z,77193.47
2023-02-02T08:22:23.352Z,77179.97
2023-02-02T08:24:50.072Z,77166.47
2023-02-02T08:27:17.051Z,77156.84
2023-02-02T08:29:43.791Z,77156.84
2023-02-02T08:32:10.361Z,77176.13
2023-02-02T08:34:37.082Z,77172.28
2023-02-02T08:37:04.376Z,77187.69
2023-02-02T08:39:30.951Z,77187.69
2023-02-02T08:41:57.943Z,77191.53
2023-02-02T08:44:27.106Z,77201.19
2023-02-02T08:47:11.424Z,77191.53
2023-02-02T08:49:38.275Z,77183.84
2023-02-02T08:52:04.882Z,77191.53
2023-02-02T08:54:31.951Z,77191.53
2023-02-02T08:56:58.611Z,77187.69
2023-02-02T08:59:25.276Z,77185.75
2023-02-02T09:01:51.887Z,77199.25
2023-02-02T09:04:20.046Z,77197.31
2023-02-02T09:06:47.433Z,77212.75
2023-02-02T09:09:15.992Z,77214.66
2023-02-02T09:11:43.542Z,77218.53
2023-02-02T09:14:12.618Z,77210.81
2023-02-02T09:16:39.795Z,77208.88
2023-02-02T09:19:07.091Z,77206.97
2023-02-02T09:21:37.308Z,77210.81
2023-02-02T09:24:12.719Z,77203.09
2023-02-02T09:26:40.409Z,77201.19
2023-02-02T09:29:10.983Z,77201.19
2023-02-02T09:31:37.966Z,77203.09
2023-02-02T09:34:06.912Z,77199.25
2023-02-02T09:36:34.007Z,77208.88
2023-02-02T09:39:01.463Z,77206.97
2023-02-02T09:41:36.799Z,77205.03
2023-02-02T09:44:21.504Z,77203.09
2023-02-02T09:46:57.301Z,77208.88
2023-02-02T09:49:52.318Z,77212.75
2023-02-02T09:52:30.003Z,77214.66
2023-02-02T09:55:03.354Z,77206.97
2023-02-02T09:57:37.825Z,77183.84
2023-02-02T10:00:16.085Z,77181.91
2023-02-02T10:02:45.976Z,77168.41
2023-02-02T10:05:19.911Z,77172.28
2023-02-02T10:07:50.797Z,77153.00
2023-02-02T10:10:43.482Z,77141.44
2023-02-02T10:13:17.864Z,77126.00
2023-02-02T10:16:17.590Z,77110.59
2023-02-02T10:18:59.609Z,77122.16
2023-02-02T10:21:40.917Z,77106.75
2023-02-02T10:24:26.365Z,77114.44
2023-02-02T10:26:59.376Z,77110.59
2023-02-02T10:29:48.055Z,77110.59
2023-02-02T10:32:41.168Z,77106.75
2023-02-02T10:35:13.787Z,77083.59
2023-02-02T10:37:58.844Z,77106.75
2023-02-02T10:40:52.482Z,77122.16
2023-02-02T10:43:48.620Z,77122.16
2023-02-02T10:46:22.728Z,77114.44
2023-02-02T10:48:50.340Z,77112.53
2023-02-02T10:51:38.002Z,77095.19
2023-02-02T10:54:18.061Z,77095.19
2023-02-02T10:56:53.899Z,77089.38
2023-02-02T10:59:31.415Z,77097.09
2023-02-02T11:02:03.689Z,77095.19
2023-02-02T11:04:54.407Z,77083.59
2023-02-02T11:07:21.068Z,77091.31
2023-02-02T11:09:47.813Z,77064.34
2023-02-02T11:12:36.870Z,77050.84
2023-02-02T11:15:07.337Z,77037.34
2023-02-02T11:17:35.100Z,77041.22
2023-02-02T11:20:02.191Z,77035.44
2023-02-02T11:22:34.112Z,77025.78
2023-02-02T11:25:29.295Z,77021.94
2023-02-02T11:27:56.028Z,77021.94
2023-02-02T11:30:40.930Z,77012.31
2023-02-02T11:33:30.722Z,76979.53
2023-02-02T11:36:06.073Z,76996.88
2023-02-02T11:38:32.874Z,76987.25
2023-02-02T11:41:07.057Z,76983.38
2023-02-02T11:43:41.257Z,76994.97
2023-02-02T11:46:19.926Z,76998.81
2023-02-02T11:49:16.697Z,77016.16
2023-02-02T11:51:44.755Z,77008.44
2023-02-02T11:54:21.865Z,76998.81
2023-02-02T11:56:51.882Z,77004.59
2023-02-02T11:59:41.357Z,77027.72
2023-02-02T12:02:20.388Z,77021.94
2023-02-02T12:04:49.309Z,77018.09
2023-02-02T12:07:32.035Z,77006.53
2023-02-02T12:10:19.974Z,77014.22
2023-02-02T12:13:25.040Z,77014.22
2023-02-02T12:16:26.115Z,77006.53
2023-02-02T12:19:17.946Z,77008.44
2023-02-02T12:22:04.619Z,77018.09
2023-02-02T12:24:57.208Z,77023.88
2023-02-02T12:27:26.649Z,77043.13
2023-02-02T12:30:15.139Z,77045.06
2023-02-02T12:32:53.350Z,77052.78
2023-02-02T12:35:35.244Z,77054.69
2023-02-02T12:38:04.880Z,77058.56
2023-02-02T12:40:43.299Z,77068.19
2023-02-02T12:43:21.997Z,77075.91
2023-02-02T12:46:39.842Z,77089.38
2023-02-02T12:49:25.373Z,77087.47
2023-02-02T12:52:13.759Z,77099.03
2023-02-02T12:55:05.136Z,77099.03
2023-02-02T12:57:50.764Z,77104.81
2023-02-02T13:00:50.617Z,77106.75
2023-02-02T13:03:17.293Z,77095.19
2023-02-02T13:06:05.231Z,77095.19
2023-02-02T13:08:41.921Z,77081.69
2023-02-02T13:11:30.052Z,77085.53
2023-02-02T13:14:12.371Z,77079.75
2023-02-02T13:16:44.294Z,77083.59
2023-02-02T13:19:21.023Z,77081.69
2023-02-02T13:21:49.606Z,77087.47
2023-02-02T13:24:26.741Z,77091.31
2023-02-02T13:26:55.948Z,77091.31
2023-02-02T13:29:27.140Z,77095.19
2023-02-02T13:32:15.540Z,77100.97
2023-02-02T13:34:50.580Z,77102.88
2023-02-02T13:37:23.066Z,77106.75
2023-02-02T13:39:53.731Z,77106.75
2023-02-02T13:42:54.593Z,77112.53
2023-02-02T13:45:57.780Z,77114.44
2023-02-02T13:48:24.362Z,77118.31
2023-02-02T13:51:18.934Z,77126.00
2023-02-02T13:54:00.696Z,77133.72
2023-02-02T13:56:41.823Z,77131.78
2023-02-02T13:59:42.111Z,77133.72
2023-02-02T14:02:40.508Z,77129.88
2023-02-02T14:05:08.933Z,77126.00
2023-02-02T14:07:40.853Z,77133.72
2023-02-02T14:10:20.798Z,77133.72
2023-02-02T14:12:47.728Z,77133.72
2023-02-02T14:15:14.611Z,77129.88
2023-02-02T14:17:41.124Z,77141.44
2023-02-02T14:20:44.543Z,77149.13
2023-02-02T14:23:48.522Z,77147.22
2023-02-02T14:26:20.210Z,77147.22
2023-02-02T14:28:49.614Z,77149.13
2023-02-02T14:31:28.992Z,77143.34
2023-02-02T14:34:16.316Z,77143.34
2023-02-02T14:36:57.057Z,77145.28
2023-02-02T14:39:29.773Z,77153.00
2023-02-02T14:42:40.184Z,77164.56
2023-02-02T14:45:12.807Z,77174.19
2023-02-02T14:47:45.507Z,77176.13
2023-02-02T14:50:36.231Z,77176.13
2023-02-02T14:53:08.387Z,77181.91
2023-02-02T14:55:50.809Z,77191.53
2023-02-02T14:58:38.632Z,77195.41
2023-02-02T15:01:28.241Z,77205.03
2023-02-02T15:04:17.760Z,77206.97
2023-02-02T15:06:44.456Z,77214.66
2023-02-02T15:09:20.640Z,77230.09
2023-02-02T15:12:01.495Z,77241.66
2023-02-02T15:14:43.726Z,77251.28
2023-02-02T15:17:34.928Z,77257.06
2023-02-02T15:20:22.782Z,77260.94
2023-02-02T15:23:19.270Z,77257.06
2023-02-02T15:25:51.573Z,77268.63
2023-02-02T15:28:48.600Z,77276.34
2023-02-02T15:31:18.236Z,77284.06
2023-02-02T15:33:49.523Z,77291.75
2023-02-02T15:36:25.275Z,77301.41
2023-02-02T15:38:58.592Z,77311.03
2023-02-02T15:41:33.560Z,77330.31
2023-02-02T15:44:01.018Z,77349.59
2023-02-02T15:46:34.312Z,77372.72
2023-02-02T15:49:32.917Z,77386.22
2023-02-02T15:52:10.927Z,77411.25
2023-02-02T15:54:40.181Z,77426.69
2023-02-02T15:57:25.844Z,77442.09
2023-02-02T15:59:52.647Z,77442.09
2023-02-02T16:02:27.764Z,77442.09
2023-02-02T16:04:54.472Z,77442.09
2023-02-02T16:07:28.138Z,77442.09
2023-02-02T16:09:54.855Z,77449.81
2023-02-02T16:12:23.423Z,77457.53
2023-02-02T16:14:52.643Z,77461.38
2023-02-02T16:17:27.666Z,77465.25
2023-02-02T16:20:13.105Z,77457.53
2023-02-02T16:22:41.655Z,77471.03
2023-02-02T16:25:19.863Z,77469.09
2023-02-02T16:27:48.553Z,77465.25
2023-02-02T16:30:42.108Z,77471.03
2023-02-02T16:33:28.023Z,77476.81
2023-02-02T16:35:55.302Z,77474.88
2023-02-02T16:38:32.497Z,77480.66
2023-02-02T16:41:07.817Z,77484.50
2023-02-02T16:43:36.456Z,77484.50
2023-02-02T16:46:10.986Z,77480.66
2023-02-02T16:48:42.704Z,77484.50
2023-02-02T16:51:21.146Z,77499.94
2023-02-02T16:53:51.461Z,77511.50
2023-02-02T16:56:29.843Z,77515.34
2023-02-02T16:58:59.033Z,77509.56
2023-02-02T17:01:39.484Z,77511.50
2023-02-02T17:04:15.938Z,77515.34
2023-02-02T17:06:52.500Z,77515.34
2023-02-02T17:09:37.914Z,77523.06
2023-02-02T17:12:33.334Z,77523.06
2023-02-02T17:15:18.706Z,77525.00
2023-02-02T17:17:49.650Z,77530.78
2023-02-02T17:20:18.169Z,77544.28
2023-02-02T17:22:50.897Z,77561.63
2023-02-02T17:25:29.547Z,77573.19
2023-02-02T17:27:58.613Z,77578.97
2023-02-02T17:30:26.392Z,77590.53
2023-02-02T17:32:53.112Z,77604.03
2023-02-02T17:35:23.112Z,77613.66
2023-02-02T17:37:52.638Z,77627.16
2023-02-02T17:40:21.826Z,77646.44
2023-02-02T17:42:51.928Z,77650.28
2023-02-02T17:45:23.335Z,77667.63
2023-02-02T17:47:51.003Z,77683.06
2023-02-02T17:50:18.447Z,77688.84
2023-02-02T17:52:46.144Z,77700.41
2023-02-02T17:55:24.058Z,77704.25
2023-02-02T17:57:52.403Z,77711.97
2023-02-02T18:00:22.642Z,77700.41
2023-02-02T18:02:52.129Z,77708.13
2023-02-02T18:05:18.813Z,77700.41
2023-02-02T18:07:45.476Z,77692.69
2023-02-02T18:10:14.226Z,77708.13
2023-02-02T18:12:41.855Z,77711.97
2023-02-02T18:15:12.690Z,77715.81
2023-02-02T18:17:39.480Z,77711.97
2023-02-02T18:20:06.607Z,77711.97
2023-02-02T18:22:33.261Z,77723.53
2023-02-02T18:25:00.033Z,77723.53
2023-02-02T18:27:29.537Z,77723.53
2023-02-02T18:29:56.271Z,77738.97
2023-02-02T18:32:22.860Z,77738.97
2023-02-02T18:34:54.982Z,77746.66
2023-02-02T18:37:24.026Z,77750.53
2023-02-02T18:39:50.692Z,77750.53
2023-02-02T18:42:17.440Z,77750.53
2023-02-02T18:44:44.836Z,77758.22
2023-02-02T18:47:11.412Z,77756.31
2023-02-02T18:49:37.984Z,77765.94
2023-02-02T18:52:04.765Z,77764.03
2023-02-02T18:54:35.632Z,77756.31
2023-02-02T18:57:02.452Z,77756.31
2023-02-02T18:59:29.696Z,77758.22
2023-02-02T19:01:56.389Z,77760.16
2023-02-02T19:04:23.179Z,77765.94
2023-02-02T19:07:08.254Z,77773.66
2023-02-02T19:09:34.859Z,77792.94
2023-02-02T19:12:02.092Z,77804.50
2023-02-02T19:14:36.835Z,77812.22
2023-02-02T19:17:22.087Z,77823.78
2023-02-02T19:19:49.820Z,77821.84
2023-02-02T19:22:21.868Z,77804.50
2023-02-02T19:24:49.428Z,77812.22
2023-02-02T19:27:21.929Z,77816.06
2023-02-02T19:29:50.765Z,77825.72
2023-02-02T19:32:21.885Z,77829.56
2023-02-02T19:35:01.521Z,77831.50
2023-02-02T19:37:30.609Z,77835.34
2023-02-02T19:40:09.544Z,77846.91
2023-02-02T19:42:43.522Z,77860.41
2023-02-02T19:45:21.276Z,77870.03
2023-02-02T19:47:48.277Z,77873.91
2023-02-02T19:50:18.601Z,77862.34
2023-02-02T19:52:46.768Z,77868.13
2023-02-02T19:55:27.409Z,77854.63
2023-02-02T19:58:00.546Z,77850.75
2023-02-02T20:00:31.435Z,77850.75
2023-02-02T20:03:07.245Z,77841.13
2023-02-02T20:05:37.523Z,77850.75
2023-02-02T20:08:17.720Z,77873.91
2023-02-02T20:10:46.093Z,77877.75
2023-02-02T20:13:25.626Z,77875.81
2023-02-02T20:16:03.347Z,77883.53
2023-02-02T20:18:44.428Z,77889.31
2023-02-02T20:21:24.202Z,77898.97
2023-02-02T20:23:50.783Z,77891.25
2023-02-02T20:26:29.034Z,77893.19
2023-02-02T20:28:58.762Z,77902.81
2023-02-02T20:31:34.556Z,77920.16
2023-02-02T20:34:01.648Z,77920.16
2023-02-02T20:36:37.580Z,77908.59
2023-02-02T20:39:16.551Z,77916.31
2023-02-02T20:41:46.219Z,77914.38
2023-02-02T20:44:12.798Z,77904.75
2023-02-02T20:46:39.616Z,77908.59
2023-02-02T20:49:06.772Z,77906.66
2023-02-02T20:51:33.508Z,77908.59
2023-02-02T20:54:00.166Z,77912.44
2023-02-02T20:56:26.741Z,77900.88
2023-02-02T20:58:53.367Z,77904.75
2023-02-02T21:01:20.275Z,77906.66
2023-02-02T21:03:46.900Z,77906.66
2023-02-02T21:06:13.538Z,77906.66
2023-02-02T21:08:40.146Z,77904.75
2023-02-02T21:11:06.692Z,77908.59
2023-02-02T21:13:33.407Z,77918.25
2023-02-02T21:16:00.023Z,77916.31
2023-02-02T21:18:26.596Z,77914.38
2023-02-02T21:20:53.354Z,77912.44
2023-02-02T21:23:21.673Z,77908.59
2023-02-02T21:25:48.511Z,77914.38
2023-02-02T21:28:15.174Z,77914.38
2023-02-02T21:30:41.972Z,77914.38
2023-02-02T21:33:08.723Z,77914.38
2023-02-02T21:35:35.528Z,77924.03
2023-02-02T21:38:10.758Z,77935.59
2023-02-02T21:40:38.650Z,77939.44
2023-02-02T21:43:18.652Z,77943.31
2023-02-02T21:45:50.495Z,77943.31
2023-02-02T21:48:21.425Z,77939.44
2023-02-02T21:50:48.150Z,77958.72
2023-02-02T21:53:22.968Z,77966.44
2023-02-02T21:55:52.572Z,77983.78
2023-02-02T21:58:25.766Z,77993.41
2023-02-02T22:00:54.498Z,77997.28
2023-02-02T22:03:31.867Z,78008.84
2023-02-02T22:06:25.252Z,78020.41
2023-02-02T22:09:00.631Z,78035.84
2023-02-02T22:11:40.222Z,78043.53
2023-02-02T22:14:21.673Z,78057.03
2023-02-02T22:16:59.097Z,78070.53
2023-02-02T22:19:37.690Z,78076.31
2023-02-02T22:22:13.479Z,78097.53
2023-02-02T22:24:40.309Z,78082.09
2023-02-02T22:27:21.557Z,78074.38
2023-02-02T22:29:48.884Z,78082.09
2023-02-02T22:32:15.569Z,78082.09
2023-02-02T22:34:42.166Z,78091.75
2023-02-02T22:37:08.860Z,78093.66
2023-02-02T22:39:38.609Z,78091.75
2023-02-02T22:42:05.826Z,78089.81
2023-02-02T22:44:32.526Z,78097.53
2023-02-02T22:46:59.094Z,78085.97
2023-02-02T22:49:25.714Z,78089.81
2023-02-02T22:51:54.107Z,78084.03
2023-02-02T22:54:21.074Z,78078.25
2023-02-02T22:56:47.711Z,78091.75
2023-02-02T22:59:14.315Z,78085.97
2023-02-02T23:01:40.870Z,78084.03
2023-02-02T23:04:07.553Z,78082.09
2023-02-02T23:06:34.676Z,78080.19
2023-02-02T23:09:01.328Z,78078.25
2023-02-02T23:11:27.976Z,78078.25
2023-02-02T23:13:54.567Z,78074.38
2023-02-02T23:16:21.174Z,78074.38
2023-02-02T23:18:47.780Z,78070.53
2023-02-02T23:21:14.363Z,78072.47
2023-02-02T23:23:41.027Z,78076.31
2023-02-02T23:26:07.684Z,78084.03
2023-02-02T23:28:34.424Z,78076.31
2023-02-02T23:31:02.071Z,78078.25
2023-02-02T23:33:28.849Z,78066.69
2023-02-02T23:35:55.426Z,78078.25
2023-02-02T23:38:22.062Z,78080.19
2023-02-02T23:40:48.725Z,78089.81
2023-02-02T23:43:15.394Z,78093.66
2023-02-02T23:45:42.067Z,78101.38
2023-02-02T23:48:09.783Z,78109.09
2023-02-02T23:50:40.075Z,78114.88
2023-02-02T23:53:08.191Z,78120.66
2023-02-02T23:55:34.959Z,78134.16
2023-02-02T23:58:02.031Z,78143.78
